Time;durP1;ratioP1;P1;durP2;ratioP2;P2;SDS_P1;SDS_P2;PMS_P1;PMS_P2;Temp;Humidity;BMP_temperature;BMP_pressure;BME280_temperature;BME280_humidity;BME280_pressure;Samples;Min_cycle;Max_cycle;Signal;HPM_P1;HPM_P2
2021/12/02 00:00:47;;;;;;;15.32;10.90;;;;;;;3.80;86.21;97758.34;1697562;84;21807;-86
2021/12/02 00:03:13;;;;;;;14.25;10.90;;;;;;;3.84;86.30;97750.98;1697454;84;21081;-86
2021/12/02 00:05:40;;;;;;;14.28;10.90;;;;;;;3.84;86.17;97748.38;1697679;84;21041;-87
2021/12/02 00:08:07;;;;;;;13.50;10.75;;;;;;;3.80;86.08;97745.34;1675671;84;21467;-87
2021/12/02 00:10:35;;;;;;;13.28;10.50;;;;;;;3.76;86.10;97736.65;1703253;82;21392;-87
2021/12/02 00:13:02;;;;;;;13.22;10.75;;;;;;;3.75;86.19;97732.73;1709024;83;21773;-87
2021/12/02 00:15:36;;;;;;;13.65;11.15;;;;;;;3.73;86.21;97725.36;1708903;82;21124;-87
2021/12/02 00:21:03;;;;;;;12.80;10.75;;;;;;;3.70;86.28;97722.33;1707937;83;21073;-86
2021/12/02 00:23:43;;;;;;;14.07;11.15;;;;;;;3.83;86.82;97703.70;1708829;83;21645;-84
2021/12/02 00:26:13;;;;;;;13.53;11.00;;;;;;;3.88;86.83;97706.75;1708672;82;21836;-84
2021/12/02 00:28:40;;;;;;;12.78;11.00;;;;;;;3.94;86.83;97705.03;1708042;83;21088;-84
2021/12/02 00:31:11;;;;;;;15.00;11.08;;;;;;;3.96;86.83;97710.70;1709107;83;21148;-85
2021/12/02 00:33:39;;;;;;;13.90;11.12;;;;;;;4.00;86.94;97702.03;1707661;83;21080;-85
2021/12/02 00:36:07;;;;;;;14.35;11.30;;;;;;;4.10;87.19;97700.30;1709324;83;21208;-85
2021/12/02 00:38:36;;;;;;;13.55;11.35;;;;;;;4.19;87.27;97699.02;1709034;83;21768;-84
2021/12/02 00:41:03;;;;;;;15.48;10.70;;;;;;;4.27;87.27;97695.98;1708745;83;21096;-85
2021/12/02 00:43:33;;;;;;;16.02;10.70;;;;;;;4.33;87.23;97687.30;1708583;83;21076;-84
2021/12/02 00:45:58;;;;;;;14.10;10.88;;;;;;;4.39;87.26;97683.42;1707784;83;21677;-85
2021/12/02 00:48:25;;;;;;;14.38;10.65;;;;;;;4.43;87.19;97678.64;1708448;83;21344;-84
2021/12/02 00:50:52;;;;;;;13.05;10.65;;;;;;;4.48;87.13;97683.39;1708549;83;21743;-85
2021/12/02 00:53:20;;;;;;;11.90;10.23;;;;;;;4.50;87.12;97686.45;1708585;83;21044;-84
2021/12/02 00:55:46;;;;;;;14.50;10.75;;;;;;;4.58;87.26;97679.48;1708432;83;21558;-85
2021/12/02 00:58:18;;;;;;;13.50;10.68;;;;;;;4.61;87.09;97684.70;1708371;83;21040;-85
2021/12/02 01:00:42;;;;;;;11.97;9.45;;;;;;;4.61;86.93;97675.14;1707478;83;21080;-85
2021/12/02 01:03:08;;;;;;;11.15;9.78;;;;;;;4.60;86.86;97672.12;1708536;83;22747;-85
2021/12/02 01:05:35;;;;;;;12.45;10.30;;;;;;;4.64;87.01;97669.09;1708220;83;21566;-85
2021/12/02 01:08:02;;;;;;;12.80;10.38;;;;;;;4.70;87.13;97667.77;1708603;83;21128;-84
2021/12/02 01:10:29;;;;;;;16.25;10.78;;;;;;;4.76;87.20;97658.63;1708057;83;21084;-85
2021/12/02 01:12:56;;;;;;;14.43;9.93;;;;;;;4.84;87.24;97652.98;1708274;83;21642;-84
2021/12/02 01:15:25;;;;;;;13.18;9.95;;;;;;;4.90;87.19;97653.41;1682693;83;21896;-85
2021/12/02 01:17:53;;;;;;;13.72;10.38;;;;;;;4.97;87.14;97649.03;1708745;83;21053;-84
2021/12/02 01:20:20;;;;;;;12.65;10.32;;;;;;;5.01;87.12;97656.86;1708728;83;21124;-84
2021/12/02 01:22:48;;;;;;;12.88;9.80;;;;;;;5.06;87.06;97653.78;1681738;83;21068;-84
2021/12/02 01:25:20;;;;;;;13.48;9.93;;;;;;;5.13;87.07;97658.55;1708705;83;21080;-85
2021/12/02 01:27:48;;;;;;;11.48;9.10;;;;;;;5.16;86.96;97649.43;1708757;83;21809;-85
2021/12/02 01:30:15;;;;;;;11.88;8.98;;;;;;;5.22;86.96;97660.27;1708656;83;21100;-84
2021/12/02 01:32:42;;;;;;;11.40;9.10;;;;;;;5.26;86.96;97671.12;1708639;82;21079;-85
2021/12/02 01:35:08;;;;;;;11.60;8.45;;;;;;;5.31;86.95;97680.22;1708470;83;21128;-84
2021/12/02 01:37:35;;;;;;;8.23;6.60;;;;;;;5.34;86.83;97675.00;1708459;82;21064;-84
2021/12/02 01:40:05;;;;;;;7.28;5.40;;;;;;;5.33;86.69;97661.11;1708403;83;21782;-85
2021/12/02 01:42:37;;;;;;;6.60;3.90;;;;;;;5.32;86.44;97665.88;1681874;83;21060;-85
2021/12/02 01:45:01;;;;;;;3.98;2.70;;;;;;;5.33;86.22;97661.11;1681782;83;21052;-85
2021/12/02 01:47:31;;;;;;;6.28;2.08;;;;;;;5.30;85.83;97647.20;1708623;83;21096;-85
2021/12/02 01:50:01;;;;;;;2.98;1.55;;;;;;;5.24;85.47;97647.66;1708643;83;21084;-85
2021/12/02 01:52:30;;;;;;;2.72;1.32;;;;;;;5.18;85.13;97640.27;1708327;83;21718;-85
2021/12/02 01:55:10;;;;;;;3.22;1.65;;;;;;;5.11;84.91;97647.71;1708718;83;21613;-85
2021/12/02 01:57:58;;;;;;;2.33;1.22;;;;;;;5.01;84.66;97648.15;1681460;83;21583;-85
2021/12/02 02:00:21;;;;;;;1.70;1.27;;;;;;;4.91;84.47;97642.09;1702411;83;21080;-85
2021/12/02 02:02:48;;;;;;;3.52;1.77;;;;;;;4.82;84.38;97643.01;1708433;83;21116;-84
2021/12/02 02:05:16;;;;;;;3.62;1.42;;;;;;;4.74;84.39;97643.44;1708612;83;21787;-83
2021/12/02 02:08:04;;;;;;;1.45;1.20;;;;;;;4.72;84.51;97646.48;1708535;83;21088;-84
2021/12/02 02:10:39;;;;;;;4.10;1.40;;;;;;;4.74;84.61;97642.13;1704749;83;21563;-84
2021/12/02 02:13:09;;;;;;;1.75;1.22;;;;;;;4.77;84.60;97638.23;1696595;84;21669;-84
2021/12/02 02:15:38;;;;;;;2.92;1.10;;;;;;;4.80;84.58;97642.55;1697176;84;21615;-85
2021/12/02 02:18:24;;;;;;;0.98;0.88;;;;;;;4.83;84.42;97630.39;1674007;84;21104;-84
2021/12/02 02:21:00;;;;;;;3.12;1.20;;;;;;;4.86;84.32;97627.79;1697131;84;21105;-84
2021/12/02 02:23:24;;;;;;;1.70;0.75;;;;;;;4.87;84.25;97630.81;1695543;84;21569;-84
2021/12/02 02:25:54;;;;;;;3.50;1.20;;;;;;;4.84;83.97;97630.84;1697246;84;21088;-84
2021/12/02 02:28:20;;;;;;;1.55;0.90;;;;;;;4.79;83.90;97626.06;1696960;84;21097;-84
2021/12/02 02:30:51;;;;;;;2.37;1.25;;;;;;;4.73;83.76;97635.20;1697200;84;21742;-84
2021/12/02 02:33:22;;;;;;;3.83;1.35;;;;;;;4.70;83.77;97629.98;1696443;84;21069;-84
2021/12/02 02:35:46;;;;;;;3.35;1.22;;;;;;;4.72;83.90;97624.78;1696263;84;21117;-84
2021/12/02 02:38:14;;;;;;;4.30;1.22;;;;;;;4.73;83.87;97624.78;1696942;84;21132;-84
2021/12/02 02:40:48;;;;;;;3.62;1.17;;;;;;;4.76;83.85;97615.64;1696840;84;21097;-84
2021/12/02 02:43:12;;;;;;;2.17;1.10;;;;;;;4.79;83.78;97609.57;1695631;84;22102;-83
2021/12/02 02:45:38;;;;;;;3.83;1.30;;;;;;;4.78;83.53;97611.73;1696643;84;21077;-84
2021/12/02 02:48:06;;;;;;;4.85;1.15;;;;;;;4.77;83.40;97600.45;1697093;84;21053;-84
2021/12/02 02:50:33;;;;;;;2.12;0.90;;;;;;;4.74;83.22;97601.75;1697165;84;21084;-84
2021/12/02 02:53:07;;;;;;;3.27;1.40;;;;;;;4.72;82.95;97607.40;1697275;84;21768;-84
2021/12/02 02:55:35;;;;;;;2.00;0.95;;;;;;;4.66;82.85;97612.19;1696718;84;21874;-84
2021/12/02 03:00:41;;;;;;;2.52;1.20;;;;;;;4.66;82.87;97616.09;1696972;84;21057;-83
2021/12/02 03:05:52;;;;;;;3.15;1.20;;;;;;;4.66;82.71;97622.61;1696748;84;21101;-84
2021/12/02 03:08:18;;;;;;;2.67;1.12;;;;;;;4.62;82.46;97618.72;1693554;84;21859;-84
2021/12/02 03:10:46;;;;;;;2.67;0.88;;;;;;;4.56;82.33;97628.72;1698005;83;21116;-84
2021/12/02 03:18:32;;;;;;;3.90;0.88;;;;;;;4.62;82.10;97625.23;1708307;83;21088;-83
2021/12/02 03:20:58;;;;;;;2.77;1.07;;;;;;;4.64;81.89;97613.94;1708304;83;22550;-84
2021/12/02 03:23:25;;;;;;;3.62;0.98;;;;;;;4.69;81.63;97612.61;1708320;83;21048;-84
2021/12/02 03:25:52;;;;;;;3.47;1.72;;;;;;;4.71;81.53;97606.98;1708510;83;21318;-84
2021/12/02 03:28:19;;;;;;;4.10;1.00;;;;;;;4.76;81.43;97601.30;1708382;83;21092;-83
2021/12/02 03:30:48;;;;;;;4.67;0.90;;;;;;;4.80;81.13;97611.28;1708365;83;21108;-84
2021/12/02 03:33:14;;;;;;;1.52;0.85;;;;;;;4.81;80.97;97606.08;1708236;83;21912;-83
2021/12/02 03:35:41;;;;;;;1.87;0.80;;;;;;;4.81;80.81;97607.37;1708642;83;21597;-84
2021/12/02 03:38:10;;;;;;;3.47;0.70;;;;;;;4.78;80.51;97595.66;1708541;83;21088;-83
2021/12/02 03:40:37;;;;;;;2.08;0.82;;;;;;;4.79;80.43;97622.16;1708537;83;21574;-83
2021/12/02 03:43:08;;;;;;;1.70;0.93;;;;;;;4.79;80.13;97602.61;1708848;83;21064;-84
2021/12/02 03:45:37;;;;;;;1.65;0.90;;;;;;;4.80;80.03;97613.45;1708056;83;21785;-84
2021/12/02 03:48:01;;;;;;;6.35;2.02;;;;;;;4.83;79.74;97616.50;1707815;83;21583;-84
2021/12/02 03:50:28;;;;;;;3.05;1.30;;;;;;;4.84;79.59;97609.99;1708224;82;21083;-83
2021/12/02 03:52:54;;;;;;;3.25;0.90;;;;;;;4.85;79.47;97607.80;1708090;83;21108;-84
2021/12/02 03:55:25;;;;;;;2.33;0.90;;;;;;;4.84;79.18;97597.38;1708703;83;21112;-84
2021/12/02 03:57:50;;;;;;;2.17;1.07;;;;;;;4.83;78.87;97597.81;1707870;83;22039;-84
2021/12/02 04:00:17;;;;;;;3.30;1.27;;;;;;;4.83;78.80;97599.12;1708486;83;21095;-84
2021/12/02 04:02:45;;;;;;;6.08;1.72;;;;;;;4.82;78.65;97602.61;1680833;83;21072;-85
2021/12/02 04:05:17;;;;;;;4.65;1.40;;;;;;;4.82;78.39;97601.72;1708001;83;21696;-84
2021/12/02 04:07:44;;;;;;;4.67;0.98;;;;;;;4.81;78.11;97601.31;1708175;83;21114;-84
2021/12/02 04:10:12;;;;;;;1.50;0.65;;;;;;;4.80;77.93;97601.72;1708435;83;21722;-84
2021/12/02 04:12:50;;;;;;;4.85;0.70;;;;;;;4.80;77.80;97604.33;1698393;83;21090;-83
2021/12/02 04:15:21;;;;;;;1.27;0.50;;;;;;;4.78;77.38;97602.61;1695837;84;21068;-83
2021/12/02 04:17:44;;;;;;;0.95;0.70;;;;;;;4.75;77.20;97593.48;1695670;84;21305;-82
2021/12/02 04:20:18;;;;;;;0.42;0.40;;;;;;;4.72;76.88;97608.70;1696936;84;21140;-83
2021/12/02 04:22:44;;;;;;;;;;;;;;;4.68;76.41;97623.92;1698942;84;21763;-83
2021/12/02 04:25:12;;;;;;;0.75;0.47;;;;;;;4.63;75.99;97612.62;1696854;84;20222;-83
2021/12/02 04:27:39;;;;;;;0.93;0.40;;;;;;;4.59;75.87;97624.79;1696853;84;21073;-83
2021/12/02 04:30:09;;;;;;;0.88;0.40;;;;;;;4.56;75.73;97629.13;1697169;84;21053;-83
2021/12/02 04:32:35;;;;;;;0.28;0.25;;;;;;;4.53;75.70;97636.53;1696752;84;21076;-83
2021/12/02 04:35:08;;;;;;;3.20;0.50;;;;;;;4.51;75.61;97642.17;1674099;84;21105;-82
2021/12/02 04:37:33;;;;;;;1.12;0.68;;;;;;;4.46;75.50;97633.05;1696214;84;21614;-84
2021/12/02 04:40:00;;;;;;;1.98;0.40;;;;;;;4.44;75.37;97649.11;1696837;84;21010;-82
2021/12/02 04:42:29;;;;;;;4.17;1.10;;;;;;;4.42;75.28;97651.30;1696765;84;21124;-83
2021/12/02 04:44:55;;;;;;;1.57;1.00;;;;;;;4.42;75.25;97647.39;1697014;84;21053;-84
2021/12/02 04:47:22;;;;;;;6.28;0.93;;;;;;;4.39;75.19;97666.50;1697182;84;22498;-84
2021/12/02 04:49:54;;;;;;;2.20;0.90;;;;;;;4.38;75.14;97656.94;1697029;84;21096;-83
2021/12/02 04:52:23;;;;;;;2.17;1.10;;;;;;;4.35;75.11;97666.03;1696740;84;21580;-84
2021/12/02 04:54:54;;;;;;;0.47;0.47;;;;;;;4.34;75.07;97673.44;1696889;84;21543;-85
2021/12/02 04:57:23;;;;;;;2.55;0.70;;;;;;;4.26;74.84;97677.34;1696601;84;21041;-80
2021/12/02 04:59:50;;;;;;;9.80;0.70;;;;;;;4.16;74.92;97682.09;1696098;84;21744;-79
2021/12/02 05:02:16;;;;;;;2.72;0.70;;;;;;;4.07;74.72;97689.47;1695949;84;21583;-79
2021/12/02 05:04:48;;;;;;;0.55;0.55;;;;;;;3.96;74.93;97685.98;1696433;84;21060;-81
2021/12/02 05:07:21;;;;;;;2.15;0.80;;;;;;;3.85;75.24;97690.29;1707836;83;21121;-79
2021/12/02 05:09:58;;;;;;;1.17;0.68;;;;;;;3.76;75.48;97692.42;1701764;83;21092;-79
2021/12/02 05:12:29;;;;;;;0.40;0.40;;;;;;;3.67;75.63;97677.64;1730138;81;21069;-79
2021/12/02 05:15:01;;;;;;;0.85;0.40;;;;;;;3.56;75.77;97679.78;1736608;81;21041;-80
2021/12/02 05:17:29;;;;;;;0.65;0.50;;;;;;;3.43;76.02;97677.13;1737075;81;21087;-79
2021/12/02 05:19:59;;;;;;;0.37;0.37;;;;;;;3.32;76.11;97673.61;1736988;81;21856;-79
2021/12/02 05:22:29;;;;;;;0.50;0.50;;;;;;;3.24;76.11;97682.68;1710384;82;21100;-79
2021/12/02 05:24:57;;;;;;;0.62;0.55;;;;;;;3.19;76.07;97680.92;1737140;81;22608;-77
2021/12/02 05:27:24;;;;;;;1.00;0.70;;;;;;;3.10;76.15;97663.14;1736804;81;21295;-76
2021/12/02 05:29:53;;;;;;;1.25;0.90;;;;;;;3.12;76.21;97670.95;1736974;81;21048;-77
2021/12/02 05:32:23;;;;;;;9.03;1.15;;;;;;;3.08;76.28;97673.95;1737014;81;21130;-77
2021/12/02 05:34:49;;;;;;;3.08;1.27;;;;;;;3.06;76.31;97682.17;1736460;81;22159;-79
2021/12/02 05:37:16;;;;;;;1.77;0.80;;;;;;;3.03;76.43;97678.69;1737739;82;21770;-81
2021/12/02 05:39:43;;;;;;;2.42;0.90;;;;;;;3.00;76.41;97679.96;1737792;81;21085;-80
2021/12/02 05:42:13;;;;;;;1.05;0.80;;;;;;;2.92;76.47;97689.02;1710274;82;21088;-84
2021/12/02 05:44:40;;;;;;;1.00;0.53;;;;;;;2.84;76.59;97692.86;1737508;82;21649;-85
2021/12/02 05:47:07;;;;;;;1.55;0.60;;;;;;;2.77;76.80;97697.58;1737784;81;21079;-80
2021/12/02 05:49:34;;;;;;;2.87;0.95;;;;;;;2.72;77.08;97692.77;1737734;82;21748;-81
2021/12/02 05:52:01;;;;;;;0.75;0.68;;;;;;;2.67;77.34;97697.95;1737917;81;21018;-84
2021/12/02 05:54:28;;;;;;;1.10;0.50;;;;;;;2.59;77.26;97686.64;1738262;82;21630;-84
2021/12/02 05:56:54;;;;;;;1.62;0.60;;;;;;;2.42;77.47;97680.02;1711018;82;21210;-85
2021/12/02 05:59:30;;;;;;;0.78;0.50;;;;;;;2.48;77.73;97702.13;1738316;81;21613;-85
2021/12/02 06:01:50;;;;;;;2.00;0.60;;;;;;;2.32;77.72;97668.67;1735764;81;21786;-81
2021/12/02 06:04:20;;;;;;;0.80;0.70;;;;;;;2.44;77.80;97704.27;1737510;82;21076;-81
2021/12/02 06:06:49;;;;;;;1.67;0.90;;;;;;;2.44;77.93;97699.48;1709616;81;21093;-81
2021/12/02 06:09:18;;;;;;;1.80;1.02;;;;;;;2.45;77.93;97690.84;1737668;82;21135;-81
2021/12/02 06:11:46;;;;;;;1.50;1.02;;;;;;;2.44;77.89;97695.19;1737650;81;21183;-80
2021/12/02 06:14:14;;;;;;;1.72;0.88;;;;;;;2.43;77.91;97700.36;1737804;82;21839;-81
2021/12/02 06:16:43;;;;;;;1.72;0.90;;;;;;;2.36;77.83;97692.07;1737459;82;21085;-81
2021/12/02 06:19:10;;;;;;;1.85;0.70;;;;;;;2.31;78.11;97708.92;1737388;82;21630;-80
2021/12/02 06:21:40;;;;;;;0.85;0.60;;;;;;;2.28;78.07;97692.88;1737862;81;21418;-81
2021/12/02 06:24:07;;;;;;;1.32;0.90;;;;;;;2.23;78.25;97704.06;1738142;81;21080;-80
2021/12/02 06:26:34;;;;;;;1.35;0.80;;;;;;;2.20;78.40;97710.55;1737864;81;22588;-81
2021/12/02 06:29:03;;;;;;;1.02;0.90;;;;;;;2.13;78.47;97702.69;1738700;82;21017;-80
2021/12/02 06:31:29;;;;;;;1.00;0.80;;;;;;;2.03;78.51;97707.36;1738609;82;21125;-80
2021/12/02 06:33:56;;;;;;;0.60;0.53;;;;;;;1.94;79.91;97715.91;1738768;81;21255;-81
2021/12/02 06:36:22;;;;;;;1.50;0.90;;;;;;;1.88;80.66;97718.44;1738715;82;21057;-80
2021/12/02 06:38:49;;;;;;;0.82;0.60;;;;;;;1.82;81.07;97713.60;1738823;81;21748;-80
2021/12/02 06:41:20;;;;;;;2.45;0.57;;;;;;;1.75;81.22;97722.62;1738814;82;21053;-81
2021/12/02 06:43:46;;;;;;;2.65;0.60;;;;;;;1.69;81.54;97713.89;1711321;82;21598;-80
2021/12/02 06:46:13;;;;;;;3.15;1.10;;;;;;;1.67;81.72;97731.16;1739063;81;21060;-80
2021/12/02 06:48:40;;;;;;;3.90;0.90;;;;;;;1.64;82.02;97722.92;1738861;81;21120;-80
2021/12/02 06:51:12;;;;;;;1.77;1.17;;;;;;;1.64;82.19;97729.84;1710353;82;21081;-80
2021/12/02 06:53:37;;;;;;;1.65;1.07;;;;;;;1.63;82.27;97741.05;1737687;81;21076;-80
2021/12/02 06:56:10;;;;;;;5.53;1.50;;;;;;;1.62;82.41;97732.84;1737990;82;21097;-80
2021/12/02 06:58:35;;;;;;;3.77;1.22;;;;;;;1.61;82.31;97730.66;1736925;82;21566;-81
2021/12/02 07:01:01;;;;;;;2.25;1.20;;;;;;;1.64;81.88;97731.14;1737979;82;21350;-80
2021/12/02 07:03:31;;;;;;;1.85;1.00;;;;;;;1.65;81.69;97733.75;1737770;82;21867;-80
2021/12/02 07:05:58;;;;;;;2.05;1.25;;;;;;;1.64;81.42;97724.22;1737772;82;21064;-80
2021/12/02 07:08:25;;;;;;;1.92;1.07;;;;;;;1.63;81.52;97719.88;1737767;82;21017;-80
2021/12/02 07:10:52;;;;;;;2.47;1.35;;;;;;;1.63;81.71;97714.69;1737872;81;21037;-80
2021/12/02 07:13:18;;;;;;;1.47;1.20;;;;;;;1.65;81.81;97712.12;1730018;81;21136;-80
2021/12/02 07:15:50;;;;;;;2.45;1.15;;;;;;;1.67;81.67;97715.19;1726256;83;21691;-80
2021/12/02 07:18:15;;;;;;;2.22;1.40;;;;;;;1.71;81.48;97711.78;1725152;83;21081;-80
2021/12/02 07:20:46;;;;;;;1.77;1.12;;;;;;;1.75;81.36;97710.95;1725958;83;21077;-80
2021/12/02 07:23:19;;;;;;;1.70;1.07;;;;;;;1.80;81.38;97714.02;1726167;83;21077;-80
2021/12/02 07:25:43;;;;;;;1.87;1.10;;;;;;;1.81;81.18;97720.52;1724997;81;21081;-81
2021/12/02 07:28:11;;;;;;;1.77;1.00;;;;;;;1.79;81.35;97730.01;1725917;83;21755;-80
2021/12/02 07:30:38;;;;;;;1.45;1.00;;;;;;;1.74;81.39;97731.23;1725856;83;21065;-80
2021/12/02 07:33:09;;;;;;;3.47;1.20;;;;;;;1.74;81.52;97731.67;1725585;83;21084;-80
2021/12/02 07:35:36;;;;;;;1.60;1.07;;;;;;;1.73;81.35;97736.00;1726009;83;21548;-80
2021/12/02 07:38:03;;;;;;;2.15;0.90;;;;;;;1.74;81.30;97743.34;1726078;83;21045;-81
2021/12/02 07:40:33;;;;;;;2.60;0.85;;;;;;;1.75;81.22;97738.18;1725931;83;22663;-80
2021/12/02 07:43:00;;;;;;;2.00;0.80;;;;;;;1.74;81.11;97727.78;1725809;83;21038;-80
2021/12/02 07:45:31;;;;;;;2.58;0.93;;;;;;;1.70;81.29;97747.62;1725858;83;21523;-80
2021/12/02 07:47:56;;;;;;;1.45;0.98;;;;;;;1.67;82.14;97744.12;1725647;83;21825;-80
2021/12/02 07:50:22;;;;;;;2.47;1.20;;;;;;;1.61;82.50;97746.64;1726131;83;21050;-80
2021/12/02 07:52:57;;;;;;;1.70;1.10;;;;;;;1.52;82.64;97754.77;1702113;83;21675;-80
2021/12/02 07:55:23;;;;;;;1.95;1.12;;;;;;;1.47;82.72;97755.13;1703436;83;21053;-80
2021/12/02 07:57:50;;;;;;;2.17;1.40;;;;;;;1.41;83.79;97748.58;1726007;83;21068;-80
2021/12/02 08:00:21;;;;;;;3.27;1.50;;;;;;;1.40;84.19;97761.51;1726088;83;21188;-80
2021/12/02 08:02:49;;;;;;;4.50;1.40;;;;;;;1.40;84.39;97764.95;1725572;82;21120;-80
2021/12/02 08:05:16;;;;;;;3.72;1.25;;;;;;;1.40;84.50;97761.51;1726178;83;22348;-80
2021/12/02 08:07:44;;;;;;;1.80;1.00;;;;;;;1.40;84.31;97774.47;1726032;83;21093;-80
2021/12/02 08:10:16;;;;;;;2.27;1.12;;;;;;;1.40;83.65;97755.89;1702718;83;21065;-80
2021/12/02 08:12:47;;;;;;;1.52;1.27;;;;;;;1.42;83.26;97761.96;1726010;82;21006;-80
2021/12/02 08:15:21;;;;;;;1.52;0.90;;;;;;;1.46;83.07;97773.23;1725711;83;21571;-80
2021/12/02 08:17:50;;;;;;;3.80;1.20;;;;;;;1.48;82.85;97770.24;1726337;83;21804;-80
2021/12/02 08:20:18;;;;;;;2.52;1.17;;;;;;;1.52;82.91;97770.31;1726031;83;21046;-80
2021/12/02 08:22:44;;;;;;;2.87;1.25;;;;;;;1.59;82.88;97782.05;1725941;83;21118;-80
2021/12/02 08:25:11;;;;;;;1.92;1.10;;;;;;;1.62;82.72;97785.56;1726109;83;21065;-80
2021/12/02 08:27:38;;;;;;;1.32;1.10;;;;;;;1.69;82.66;97772.23;1725906;83;21190;-81
2021/12/02 08:30:06;;;;;;;1.57;1.02;;;;;;;1.72;82.55;97779.62;1726208;82;21746;-80
2021/12/02 08:32:35;;;;;;;3.22;1.10;;;;;;;1.77;82.54;97786.17;1725842;83;21113;-80
2021/12/02 08:35:01;;;;;;;3.45;1.60;;;;;;;1.85;82.51;97795.34;1726057;83;21077;-80
2021/12/02 08:37:33;;;;;;;1.57;1.07;;;;;;;1.90;82.33;97799.73;1725551;83;21647;-81
2021/12/02 08:40:00;;;;;;;2.72;1.05;;;;;;;1.97;82.17;97795.91;1725976;83;21077;-80
2021/12/02 08:42:30;;;;;;;1.35;1.05;;;;;;;2.03;81.99;97805.08;1726184;82;21754;-80
2021/12/02 08:44:56;;;;;;;2.95;1.42;;;;;;;2.08;81.80;97806.87;1726076;82;21061;-80
2021/12/02 08:47:25;;;;;;;2.25;1.02;;;;;;;2.14;81.72;97809.52;1726085;83;21065;-80
2021/12/02 08:49:53;;;;;;;1.62;1.10;;;;;;;2.21;81.54;97812.17;1726005;83;21030;-80
2021/12/02 08:52:21;;;;;;;2.77;1.35;;;;;;;2.29;81.41;97816.61;1726096;83;21041;-80
2021/12/02 08:54:53;;;;;;;2.85;1.57;;;;;;;2.39;81.35;97816.70;1702646;83;21571;-80
2021/12/02 08:57:21;;;;;;;1.45;1.00;;;;;;;2.53;82.62;97816.39;1725892;83;22273;-81
2021/12/02 08:59:48;;;;;;;2.47;1.02;;;;;;;2.66;82.60;97813.49;1726222;83;21140;-81
2021/12/02 09:02:15;;;;;;;3.08;1.07;;;;;;;2.77;82.53;97820.09;1726152;83;21061;-80
2021/12/02 09:04:41;;;;;;;1.52;0.93;;;;;;;2.89;82.27;97822.38;1726111;83;21076;-80
2021/12/02 09:07:11;;;;;;;2.25;0.80;;;;;;;2.97;81.36;97827.63;1726201;83;21758;-81
2021/12/02 09:09:37;;;;;;;2.17;0.88;;;;;;;3.02;80.80;97838.94;1725634;83;21026;-81
2021/12/02 09:12:05;;;;;;;2.22;1.10;;;;;;;3.10;80.47;97826.00;1726149;83;21019;-80
2021/12/02 09:14:31;;;;;;;2.72;1.57;;;;;;;3.15;80.17;97809.98;1732383;81;21513;-81
2021/12/02 09:16:58;;;;;;;1.02;0.82;;;;;;;3.19;80.00;97837.77;1733532;82;21069;-81
2021/12/02 09:19:25;;;;;;;3.58;1.10;;;;;;;3.23;79.92;97843.42;1733736;82;21752;-81
2021/12/02 09:21:59;;;;;;;3.70;0.90;;;;;;;3.27;79.62;97830.88;1733647;81;21130;-81
2021/12/02 09:24:23;;;;;;;2.72;1.45;;;;;;;3.33;79.37;97844.79;1732253;82;21100;-81
2021/12/02 09:26:50;;;;;;;6.83;3.20;;;;;;;3.37;79.24;97836.14;1733493;82;21622;-81
2021/12/02 09:29:18;;;;;;;26.57;14.80;;;;;;;3.41;79.09;97836.16;1733796;82;21053;-81
2021/12/02 09:31:45;;;;;;;9.93;4.33;;;;;;;3.45;78.92;97839.66;1733549;81;21764;-80
2021/12/02 09:34:12;;;;;;;6.42;4.08;;;;;;;3.41;78.77;97813.20;1733464;82;21380;-81
2021/12/02 09:36:41;;;;;;;21.05;13.85;;;;;;;3.51;78.79;97839.72;1733085;81;21131;-79
2021/12/02 09:39:09;;;;;;;9.18;4.95;;;;;;;3.45;78.66;97835.34;1733171;82;21649;-79
2021/12/02 09:41:36;;;;;;;7.97;5.03;;;;;;;3.44;78.69;97850.49;1733186;82;21112;-80
2021/12/02 09:44:03;;;;;;;4.35;3.80;;;;;;;3.45;78.60;97855.25;1733444;82;21672;-80
2021/12/02 09:46:30;;;;;;;3.70;1.70;;;;;;;3.47;78.61;97862.63;1733278;81;21057;-80
2021/12/02 09:48:58;;;;;;;2.75;2.00;;;;;;;3.49;78.39;97864.41;1733429;82;21085;-80
2021/12/02 09:51:33;;;;;;;3.22;1.55;;;;;;;3.52;78.36;97870.05;1733025;82;20995;-80
2021/12/02 09:54:00;;;;;;;1.87;1.25;;;;;;;3.57;78.24;97869.66;1733088;82;21124;-80
2021/12/02 09:56:29;;;;;;;2.33;2.10;;;;;;;3.63;78.05;97868.38;1733063;81;21879;-80
2021/12/02 09:58:58;;;;;;;6.30;2.02;;;;;;;3.69;77.96;97854.10;1733419;82;21054;-80
2021/12/02 10:01:30;;;;;;;2.30;1.75;;;;;;;3.80;78.02;97876.73;1733577;82;21606;-80
2021/12/02 10:03:58;;;;;;;8.28;6.45;;;;;;;3.90;77.88;97856.38;1732893;82;21145;-80
2021/12/02 10:06:24;;;;;;;5.17;4.20;;;;;;;3.97;77.51;97878.98;1732805;82;21136;-80
2021/12/02 10:08:54;;;;;;;6.05;4.28;;;;;;;3.95;77.15;97875.94;1733701;82;21830;-80
2021/12/02 10:11:49;;;;;;;18.15;6.28;;;;;;;3.91;76.94;97881.56;1733067;82;21072;-80
2021/12/02 10:14:33;;;;;;;3.65;2.10;;;;;;;3.91;76.88;97897.17;1735161;82;21117;-80
2021/12/02 10:17:16;;;;;;;3.08;1.90;;;;;;;3.95;76.76;97887.21;1737110;82;21088;-80
2021/12/02 10:20:19;;;;;;;1.87;1.42;;;;;;;3.94;76.47;97893.30;1737097;82;21068;-80
2021/12/02 10:22:46;;;;;;;14.80;2.12;;;;;;;3.95;76.38;97900.66;1736652;82;21772;-80
2021/12/02 10:25:29;;;;;;;3.05;1.80;;;;;;;3.91;76.18;97891.97;1734222;81;21072;-80
2021/12/02 10:28:08;;;;;;;6.70;3.00;;;;;;;3.88;76.25;97884.13;1737748;81;21086;-80
2021/12/02 10:30:39;;;;;;;2.30;1.60;;;;;;;3.87;76.16;97885.02;1737475;81;21092;-80
2021/12/02 10:33:04;;;;;;;1.80;1.57;;;;;;;3.89;76.07;97900.20;1687341;82;21331;-80
2021/12/02 10:35:38;;;;;;;2.30;1.67;;;;;;;3.87;75.83;97891.52;1737530;81;21835;-80
2021/12/02 10:38:04;;;;;;;2.00;1.72;;;;;;;3.80;75.84;97913.16;1737339;81;21060;-80
2021/12/02 10:40:31;;;;;;;1.80;1.30;;;;;;;3.76;75.83;97908.36;1737314;81;21174;-80
2021/12/02 10:43:05;;;;;;;2.47;2.02;;;;;;;3.83;75.92;97911.84;1737546;81;21149;-80
2021/12/02 10:45:31;;;;;;;;;;;;;;;3.90;75.87;97930.55;1740210;81;21095;-80
2021/12/02 10:47:58;;;;;;;1.40;1.30;;;;;;;3.98;75.70;97910.66;1737447;81;21740;-80
2021/12/02 10:50:27;;;;;;;2.98;1.92;;;;;;;4.07;75.74;97912.02;1736824;82;21012;-80
2021/12/02 10:52:54;;;;;;;2.52;2.20;;;;;;;4.12;75.56;97925.04;1737519;82;21100;-80
2021/12/02 10:55:23;;;;;;;2.27;1.60;;;;;;;4.17;75.41;97923.34;1737632;81;21109;-80
2021/12/02 10:57:54;;;;;;;2.70;1.50;;;;;;;4.17;75.06;97929.84;1737910;81;21534;-80
2021/12/02 11:00:24;;;;;;;2.08;1.00;;;;;;;4.19;75.14;97929.86;1737626;81;21764;-80
2021/12/02 11:02:55;;;;;;;2.85;1.40;;;;;;;4.24;75.08;97925.11;1737900;82;21026;-80
2021/12/02 11:05:31;;;;;;;1.92;1.60;;;;;;;4.25;74.89;97921.63;1709485;82;21076;-80
2021/12/02 11:10:25;;;;;;;4.03;2.83;;;;;;;4.20;74.84;97939.39;1737681;82;20990;-80
2021/12/02 11:12:54;;;;;;;2.40;1.82;;;;;;;4.20;74.76;97942.00;1737659;82;21896;-80
2021/12/02 11:15:28;;;;;;;2.70;1.87;;;;;;;4.17;74.62;97955.88;1726327;81;21061;-80
2021/12/02 11:18:06;;;;;;;2.42;1.40;;;;;;;4.06;74.43;97944.10;1726062;82;21049;-80
2021/12/02 11:20:41;;;;;;;3.17;1.52;;;;;;;3.98;74.46;97951.00;1725289;83;21062;-80
2021/12/02 11:23:15;;;;;;;1.32;1.07;;;;;;;3.93;74.41;97959.64;1725950;83;21069;-80
2021/12/02 11:26:02;;;;;;;1.82;1.20;;;;;;;3.86;74.45;97953.08;1725869;82;22413;-80
2021/12/02 11:28:30;;;;;;;1.52;1.10;;;;;;;3.76;74.36;97964.73;1725516;83;21116;-80
2021/12/02 11:30:58;;;;;;;3.80;1.30;;;;;;;3.73;74.50;97979.87;1725722;83;21615;-80
2021/12/02 11:33:39;;;;;;;2.12;1.37;;;;;;;3.77;74.62;97975.56;1725898;83;21053;-79
2021/12/02 11:36:05;;;;;;;2.60;1.40;;;;;;;3.83;74.66;97986.90;1725173;83;21571;-79
2021/12/02 11:38:32;;;;;;;2.25;1.30;;;;;;;3.87;74.70;97984.75;1725910;83;22567;-80
2021/12/02 11:41:02;;;;;;;2.55;1.20;;;;;;;3.87;74.49;97990.40;1725790;82;21296;-80
2021/12/02 11:43:38;;;;;;;2.12;1.42;;;;;;;3.91;74.47;97999.09;1725487;82;21053;-79
2021/12/02 11:46:07;;;;;;;2.27;1.10;;;;;;;3.95;74.51;97975.70;1725458;83;21074;-80
2021/12/02 11:48:41;;;;;;;1.00;0.88;;;;;;;4.03;74.51;97993.52;1725990;83;21511;-80
2021/12/02 11:51:12;;;;;;;2.08;1.55;;;;;;;4.08;74.49;98003.55;1725042;82;21843;-80
2021/12/02 11:53:39;;;;;;;2.62;1.20;;;;;;;4.12;74.26;97995.77;1725587;83;21080;-79
2021/12/02 11:56:12;;;;;;;2.98;1.57;;;;;;;4.12;74.16;98003.58;1725876;82;21642;-80
2021/12/02 11:58:39;;;;;;;2.95;1.30;;;;;;;4.15;74.24;98019.19;1725960;82;21065;-79
2021/12/02 12:01:08;;;;;;;1.87;1.00;;;;;;;4.17;74.17;98000.58;1702911;83;21050;-79
2021/12/02 12:03:53;;;;;;;2.75;1.47;;;;;;;4.16;74.07;98014.45;1725629;83;21799;-80